Time;durP1;ratioP1;P1;durP2;ratioP2;P2;SDS_P1;SDS_P2;PMS_P1;PMS_P2;Temp;Humidity;BMP_temperature;BMP_pressure;BME280_temperature;BME280_humidity;BME280_pressure;Samples;Min_cycle;Max_cycle;Signal;HPM_P1;HPM_P2
2021/01/27 00:01:31;;;;;;;7.68;4.88;;;0.50;92.40;;;;;;6275675;28;20036;-78
2021/01/27 00:04:31;;;;;;;10.20;5.40;;;0.90;92.60;;;;;;6275883;28;20033;-77
2021/01/27 00:07:32;;;;;;;9.70;5.30;;;0.30;92.80;;;;;;6259234;28;20367;-77
2021/01/27 00:10:33;;;;;;;6.45;4.68;;;0.40;92.60;;;;;;6293342;28;20142;-78
2021/01/27 00:13:33;;;;;;;8.73;4.72;;;0.10;92.40;;;;;;6275483;28;20036;-77
2021/01/27 00:16:34;;;;;;;7.05;4.70;;;0.50;92.60;;;;;;6292286;28;20082;-77
2021/01/27 00:19:35;;;;;;;8.55;5.43;;;0.60;92.70;;;;;;6292252;28;20484;-77
2021/01/27 00:22:35;;;;;;;7.57;4.93;;;0.50;92.40;;;;;;6293316;28;20036;-77
2021/01/27 00:25:36;;;;;;;7.30;5.97;;;0.00;92.60;;;;;;6292116;28;20485;-77
2021/01/27 00:28:37;;;;;;;8.73;5.30;;;0.20;92.60;;;;;;6291735;28;20900;-78
2021/01/27 00:31:38;;;;;;;9.23;5.32;;;0.10;92.30;;;;;;6291689;28;20037;-76
2021/01/27 00:34:38;;;;;;;5.63;4.85;;;0.00;99.90;;;;;;6291744;28;20035;-77
2021/01/27 00:37:39;;;;;;;6.82;4.55;;;-0.20;99.90;;;;;;6291801;28;20025;-79
2021/01/27 00:40:40;;;;;;;7.07;4.93;;;-0.20;99.90;;;;;;6274789;28;20386;-77
2021/01/27 00:43:41;;;;;;;8.68;5.03;;;-1.40;99.20;;;;;;6291520;28;20029;-79
2021/01/27 00:46:42;;;;;;;10.88;5.05;;;-0.40;99.90;;;;;;6291621;28;20032;-77
2021/01/27 00:49:42;;;;;;;5.90;4.70;;;-0.60;99.90;;;;;;6274691;28;20028;-79
2021/01/27 00:52:43;;;;;;;7.15;5.03;;;-0.40;99.90;;;;;;6275054;28;20495;-77
2021/01/27 00:55:44;;;;;;;8.45;5.45;;;-0.30;99.90;;;;;;6291633;28;20085;-77
2021/01/27 00:58:44;;;;;;;9.90;6.13;;;0.10;99.90;;;;;;6258236;28;20417;-77
2021/01/27 01:01:45;;;;;;;10.95;5.75;;;;;;;;;;6291253;28;20060;-78
2021/01/27 01:04:46;;;;;;;8.57;6.25;;;-0.30;99.90;;;;;;6292751;28;20025;-79
2021/01/27 01:07:47;;;;;;;7.70;5.47;;;;;;;;;;6274822;28;20496;-77
2021/01/27 01:10:49;;;;;;;7.32;5.30;;;-0.20;99.90;;;;;;6291072;28;20108;-78
2021/01/27 01:13:50;;;;;;;7.00;5.32;;;;;;;;;;6275066;28;20043;-78
2021/01/27 01:16:51;;;;;;;8.82;5.20;;;-0.50;99.90;;;;;;6292147;28;20454;-78
2021/01/27 01:19:52;;;;;;;7.53;4.95;;;;;;;;;;6257936;28;20036;-77
2021/01/27 01:22:55;;;;;;;6.15;4.97;;;-0.30;98.60;;;;;;6292176;28;20025;-77
2021/01/27 01:25:55;;;;;;;8.02;5.80;;;0.10;92.70;;;;;;6291149;28;20079;-77
2021/01/27 01:28:56;;;;;;;6.68;4.35;;;;;;;;;;6291082;28;20041;-77
2021/01/27 01:31:57;;;;;;;6.57;5.00;;;-0.30;91.50;;;;;;6291078;28;20032;-77
2021/01/27 01:34:58;;;;;;;9.95;5.22;;;0.20;93.00;;;;;;6290932;28;20374;-77
2021/01/27 01:37:58;;;;;;;7.15;5.30;;;-0.30;93.10;;;;;;6292344;28;20116;-77
2021/01/27 01:41:01;;;;;;;7.82;5.32;;;0.50;93.50;;;;;;6290968;28;20490;-79
2021/01/27 01:44:01;;;;;;;18.00;9.55;;;-0.50;93.30;;;;;;6274102;28;20040;-78
2021/01/27 01:47:02;;;;;;;8.07;5.75;;;-0.40;93.40;;;;;;6290803;28;20710;-79
2021/01/27 01:50:03;;;;;;;7.20;5.50;;;-0.50;93.30;;;;;;6292499;28;20051;-79
2021/01/27 01:53:03;;;;;;;5.75;4.68;;;-0.50;93.60;;;;;;6291146;28;20124;-76
2021/01/27 01:56:05;;;;;;;7.63;4.85;;;0.00;93.90;;;;;;6257612;28;20050;-75
2021/01/27 01:59:07;;;;;;;17.08;9.75;;;-0.40;93.40;;;;;;6257886;28;20039;-76
2021/01/27 02:02:08;;;;;;;16.45;9.80;;;0.20;93.70;;;;;;6274072;28;20045;-77
2021/01/27 02:05:12;;;;;;;7.13;5.53;;;-0.50;93.80;;;;;;6273975;28;20041;-76
2021/01/27 02:08:13;;;;;;;9.25;6.60;;;-0.60;93.90;;;;;;6290537;28;20025;-78
2021/01/27 02:11:18;;;;;;;10.77;7.95;;;-0.50;94.00;;;;;;6273906;28;20033;-77
2021/01/27 02:14:41;;;;;;;9.68;5.30;;;0.40;94.30;;;;;;6290572;28;20024;-76
2021/01/27 02:17:51;;;;;;;5.57;4.88;;;0.10;94.30;;;;;;6275971;28;20017;-77
2021/01/27 02:21:13;;;;;;;7.93;4.80;;;0.50;94.20;;;;;;6279046;28;20029;-79
2021/01/27 02:24:42;;;;;;;9.73;5.28;;;-0.70;92.90;;;;;;6296134;28;20040;-77
2021/01/27 02:27:53;;;;;;;6.47;5.00;;;-0.90;92.80;;;;;;6294485;28;20066;-79
2021/01/27 02:31:16;;;;;;;6.90;5.03;;;-0.80;95.10;;;;;;6278074;28;20366;-79
2021/01/27 02:34:32;;;;;;;;;;;-0.90;94.00;;;;;;6294868;28;20441;-76
2021/01/27 02:37:48;;;;;;;6.13;5.40;;;-0.70;93.90;;;;;;6296115;28;19925;-77
2021/01/27 02:41:08;;;;;;;6.28;4.93;;;-0.90;93.50;;;;;;6295665;28;20047;-77
2021/01/27 02:44:14;;;;;;;6.07;4.40;;;-1.00;93.40;;;;;;6294940;28;20493;-75
2021/01/27 02:47:48;;;;;;;5.05;4.07;;;-0.80;94.60;;;;;;6277829;28;20475;-78
2021/01/27 02:50:56;;;;;;;4.78;4.13;;;-1.00;93.30;;;;;;6294161;28;20520;-79
2021/01/27 02:54:14;;;;;;;6.88;4.03;;;-1.00;94.40;;;;;;6277469;28;20055;-77
2021/01/27 02:57:22;;;;;;;5.75;4.32;;;-0.90;93.20;;;;;;6279467;28;20319;-76
2021/01/27 03:00:30;;;;;;;6.95;4.72;;;-0.90;92.80;;;;;;6293925;28;20462;-77
2021/01/27 03:03:42;;;;;;;5.43;4.32;;;-1.00;99.90;;;;;;6277435;28;20040;-79
2021/01/27 03:06:42;;;;;;;9.33;4.73;;;-0.40;99.90;;;;;;6262614;28;20111;-77
2021/01/27 03:09:46;;;;;;;7.22;4.40;;;-0.50;99.90;;;;;;6293865;28;20060;-79
2021/01/27 03:12:48;;;;;;;6.60;4.55;;;-0.30;93.80;;;;;;6277031;28;20028;-77
2021/01/27 03:15:48;;;;;;;6.18;3.55;;;-0.90;99.10;;;;;;6293373;28;20029;-77
2021/01/27 03:19:10;;;;;;;6.68;3.67;;;-0.30;93.40;;;;;;6277079;28;20038;-77
2021/01/27 03:22:19;;;;;;;5.13;3.80;;;-0.10;93.10;;;;;;6276667;28;20064;-77
2021/01/27 03:25:24;;;;;;;4.75;3.70;;;-0.90;92.00;;;;;;6277539;28;20059;-76
2021/01/27 03:28:30;;;;;;;6.25;3.53;;;-0.90;93.30;;;;;;6293336;28;20045;-79
2021/01/27 03:31:30;;;;;;;6.03;3.60;;;-0.70;93.60;;;;;;6260366;28;20036;-79
2021/01/27 03:34:57;;;;;;;4.00;3.40;;;-0.80;93.60;;;;;;6294238;28;20040;-77
2021/01/27 03:38:28;;;;;;;5.30;3.50;;;-0.80;92.40;;;;;;6277590;28;20028;-79
2021/01/27 03:41:59;;;;;;;6.30;3.85;;;-1.00;92.50;;;;;;6292914;28;20044;-76
2021/01/27 03:45:03;;;;;;;6.35;3.78;;;-0.90;92.40;;;;;;6292882;28;20048;-77
2021/01/27 03:48:04;;;;;;;5.55;5.00;;;-0.80;93.60;;;;;;6276294;28;20070;-77
2021/01/27 03:51:05;;;;;;;4.83;3.90;;;-0.80;93.40;;;;;;6292598;28;20033;-79
2021/01/27 03:54:08;;;;;;;3.95;3.53;;;-0.70;93.50;;;;;;6293958;28;20489;-78
2021/01/27 03:57:22;;;;;;;3.70;3.20;;;-0.50;93.40;;;;;;6276038;28;20037;-77
2021/01/27 04:00:26;;;;;;;3.83;3.08;;;0.70;93.60;;;;;;6293098;28;20023;-80
2021/01/27 04:03:28;;;;;;;4.43;3.42;;;-0.30;93.10;;;;;;6275927;28;20436;-77
2021/01/27 04:06:29;;;;;;;5.80;3.40;;;-0.60;92.90;;;;;;6276005;28;20111;-77
2021/01/27 04:09:29;;;;;;;7.93;3.55;;;-0.50;93.00;;;;;;6292099;28;20032;-78
2021/01/27 04:12:30;;;;;;;8.40;3.88;;;0.20;92.90;;;;;;6292030;28;20065;-78
2021/01/27 04:15:31;;;;;;;4.85;3.10;;;0.30;92.90;;;;;;6292048;28;20098;-77
2021/01/27 04:18:31;;;;;;;4.88;3.45;;;0.40;92.70;;;;;;6291775;28;20120;-77
2021/01/27 04:21:32;;;;;;;4.13;3.40;;;-0.10;92.70;;;;;;6275478;28;20108;-78
2021/01/27 04:24:32;;;;;;;4.93;3.35;;;1.20;93.40;;;;;;6292916;28;20044;-79
2021/01/27 04:27:33;;;;;;;3.60;3.10;;;0.80;93.30;;;;;;6293542;28;20070;-77
2021/01/27 04:30:34;;;;;;;10.10;5.22;;;0.10;93.00;;;;;;6291632;28;20624;-77
2021/01/27 04:33:35;;;;;;;18.00;8.82;;;-0.40;92.30;;;;;;6258732;28;20036;-76
2021/01/27 04:36:36;;;;;;;14.57;7.57;;;0.00;92.60;;;;;;6291893;28;20037;-77
2021/01/27 04:39:36;;;;;;;11.35;5.95;;;1.80;92.60;;;;;;6292640;28;20067;-78
2021/01/27 04:42:37;;;;;;;36.78;15.02;;;0.20;91.90;;;;;;6291358;28;20040;-78
2021/01/27 04:45:37;;;;;;;10.65;5.75;;;0.20;91.90;;;;;;6258696;28;20078;-79
2021/01/27 04:49:08;;;;;;;6.15;3.60;;;1.30;92.20;;;;;;6291546;28;20052;-76
2021/01/27 04:52:21;;;;;;;6.63;4.10;;;-0.20;90.70;;;;;;6291751;28;20032;-78
2021/01/27 04:55:30;;;;;;;18.92;8.23;;;-0.10;90.40;;;;;;6291566;28;20027;-77
2021/01/27 04:58:55;;;;;;;9.27;4.97;;;-0.10;95.30;;;;;;6275234;28;20032;-79
2021/01/27 05:02:04;;;;;;;8.93;4.07;;;0.10;90.20;;;;;;6292080;28;20043;-77
2021/01/27 05:05:06;;;;;;;17.02;9.05;;;0.00;90.40;;;;;;6292611;28;20036;-77
2021/01/27 05:08:20;;;;;;;9.48;5.55;;;0.00;91.50;;;;;;6291264;28;20178;-77
2021/01/27 05:11:21;;;;;;;4.68;2.97;;;0.00;90.40;;;;;;6291352;28;20035;-78
2021/01/27 05:14:21;;;;;;;6.13;3.15;;;0.30;90.90;;;;;;6274166;28;20025;-77
2021/01/27 05:17:22;;;;;;;3.53;3.22;;;0.20;90.50;;;;;;6291340;28;20024;-78
2021/01/27 05:20:22;;;;;;;4.65;3.72;;;0.80;90.80;;;;;;6290888;28;20039;-77
2021/01/27 05:23:23;;;;;;;4.68;3.65;;;0.20;91.40;;;;;;6291224;28;20032;-77
2021/01/27 05:26:48;;;;;;;5.20;3.38;;;0.70;91.90;;;;;;6290858;28;20050;-78
2021/01/27 05:30:02;;;;;;;3.47;2.70;;;-0.10;90.40;;;;;;6290517;28;20108;-76
2021/01/27 05:33:03;;;;;;;5.45;3.97;;;-0.10;91.50;;;;;;6274273;28;20536;-77
2021/01/27 05:36:08;;;;;;;5.63;3.22;;;-0.20;91.40;;;;;;6292314;28;20021;-79
2021/01/27 05:39:10;;;;;;;2.85;2.65;;;0.30;91.60;;;;;;6274709;28;20028;-77
2021/01/27 05:42:27;;;;;;;3.87;2.97;;;0.00;91.00;;;;;;6274185;28;20097;-78
2021/01/27 05:45:36;;;;;;;16.23;8.95;;;-0.20;91.00;;;;;;6292243;28;20028;-76
2021/01/27 05:48:41;;;;;;;8.57;5.30;;;-0.10;89.70;;;;;;6274471;28;20028;-77
2021/01/27 05:51:42;;;;;;;6.00;3.88;;;-0.20;91.10;;;;;;6275725;28;20028;-77
2021/01/27 05:54:43;;;;;;;6.22;3.40;;;0.50;91.40;;;;;;6279371;28;20081;-77
2021/01/27 05:57:44;;;;;;;4.60;3.10;;;1.10;91.70;;;;;;6278816;28;20060;-77
2021/01/27 06:00:44;;;;;;;3.60;3.13;;;0.50;91.90;;;;;;6279160;28;20013;-79
2021/01/27 06:03:53;;;;;;;4.93;3.20;;;0.40;91.90;;;;;;6295594;28;20478;-77
2021/01/27 06:06:55;;;;;;;4.22;3.22;;;-0.20;91.10;;;;;;6279342;28;20021;-78
2021/01/27 06:09:56;;;;;;;4.13;3.20;;;-0.30;91.90;;;;;;6295337;28;20032;-76
2021/01/27 06:13:18;;;;;;;8.90;5.65;;;-0.20;99.90;;;;;;6295140;28;20909;-78
2021/01/27 06:16:23;;;;;;;5.30;3.88;;;-0.10;90.70;;;;;;6295489;28;20059;-77
2021/01/27 06:19:25;;;;;;;5.25;4.38;;;0.30;92.00;;;;;;6295294;28;20107;-77
2021/01/27 06:22:44;;;;;;;4.13;3.37;;;1.30;92.40;;;;;;6278483;28;20430;-77
2021/01/27 06:26:02;;;;;;;8.75;4.00;;;-0.40;99.90;;;;;;6296444;28;20028;-76
2021/01/27 06:29:12;;;;;;;6.32;4.22;;;-0.20;91.10;;;;;;6278102;28;20466;-77
2021/01/27 06:32:31;;;;;;;5.40;4.30;;;0.10;92.40;;;;;;6294992;28;20043;-76
2021/01/27 06:35:47;;;;;;;4.45;3.58;;;1.30;98.20;;;;;;6294885;28;20039;-77
2021/01/27 06:39:13;;;;;;;5.85;4.13;;;0.00;91.30;;;;;;6296144;28;20404;-78
2021/01/27 06:42:37;;;;;;;9.05;5.70;;;-0.10;91.10;;;;;;6295640;28;20059;-81
2021/01/27 06:45:53;;;;;;;9.45;5.82;;;-0.10;91.10;;;;;;6293390;28;20032;-75
2021/01/27 06:49:21;;;;;;;7.82;5.25;;;-0.20;91.10;;;;;;6296138;28;20059;-75
2021/01/27 06:52:30;;;;;;;6.05;4.50;;;-0.10;91.40;;;;;;6295562;28;20031;-76
2021/01/27 06:55:45;;;;;;;6.53;4.68;;;-0.10;91.20;;;;;;6295593;28;20032;-75
2021/01/27 06:59:12;;;;;;;5.95;4.40;;;-0.20;91.30;;;;;;6294223;28;20479;-75
2021/01/27 07:02:29;;;;;;;5.50;4.57;;;0.00;92.40;;;;;;6294253;28;20105;-74
2021/01/27 07:05:53;;;;;;;5.70;4.20;;;1.30;92.60;;;;;;6293930;28;20032;-79
2021/01/27 07:09:16;;;;;;;3.53;2.83;;;-0.20;99.90;;;;;;6294138;28;20027;-77
2021/01/27 07:12:25;;;;;;;3.00;2.50;;;-0.20;99.90;;;;;;6295058;28;20028;-78
2021/01/27 07:15:40;;;;;;;4.10;3.20;;;0.00;99.90;;;;;;6295301;28;20048;-77
2021/01/27 07:19:15;;;;;;;3.70;2.63;;;-0.10;96.50;;;;;;6295090;28;20029;-77
2021/01/27 07:22:23;;;;;;;5.18;3.92;;;0.00;91.30;;;;;;6294718;28;20446;-79
2021/01/27 07:25:45;;;;;;;4.75;2.90;;;0.00;91.00;;;;;;6293451;28;20056;-76
2021/01/27 07:29:07;;;;;;;10.30;6.45;;;0.00;90.60;;;;;;6280059;28;20040;-76
2021/01/27 07:32:26;;;;;;;4.60;3.42;;;0.20;92.00;;;;;;6293216;28;20071;-75
2021/01/27 07:35:34;;;;;;;6.80;4.35;;;0.10;92.00;;;;;;6294599;28;20028;-76
2021/01/27 07:38:36;;;;;;;3.35;3.05;;;0.10;92.00;;;;;;6294023;28;20031;-77
2021/01/27 07:41:49;;;;;;;6.35;4.28;;;0.00;91.10;;;;;;6292677;28;20136;-76
2021/01/27 07:44:53;;;;;;;21.00;11.30;;;-0.10;92.10;;;;;;6293427;28;20028;-77
2021/01/27 07:48:17;;;;;;;6.80;4.40;;;1.70;92.70;;;;;;6274591;28;20059;-77
2021/01/27 07:51:23;;;;;;;5.78;3.65;;;0.60;92.80;;;;;;6275426;28;20039;-79
2021/01/27 07:54:35;;;;;;;6.68;4.75;;;2.10;93.60;;;;;;6259649;28;20105;-78
2021/01/27 07:57:44;;;;;;;5.53;3.92;;;0.90;90.80;;;;;;6259173;28;20037;-77
2021/01/27 08:01:18;;;;;;;5.53;4.10;;;0.60;88.70;;;;;;6293000;28;20465;-77
2021/01/27 08:04:39;;;;;;;5.75;3.90;;;0.60;90.50;;;;;;6292260;28;20117;-81
2021/01/27 08:07:41;;;;;;;7.97;4.50;;;0.50;90.90;;;;;;6291938;28;20469;-77
2021/01/27 08:10:42;;;;;;;6.95;4.00;;;0.60;91.20;;;;;;6292192;28;20492;-77
2021/01/27 08:13:43;;;;;;;7.63;4.43;;;0.50;98.10;;;;;;6291707;28;20028;-76
2021/01/27 08:16:45;;;;;;;7.03;5.38;;;0.50;99.90;;;;;;6275341;28;20028;-77
2021/01/27 08:19:46;;;;;;;3.03;2.65;;;0.30;99.90;;;;;;6275289;28;20478;-75
2021/01/27 08:22:51;;;;;;;3.45;3.15;;;0.70;99.90;;;;;;6275237;28;20040;-76
2021/01/27 08:26:04;;;;;;;5.68;3.88;;;0.60;99.90;;;;;;6291794;28;20707;-79
2021/01/27 08:29:09;;;;;;;5.53;3.38;;;1.00;99.90;;;;;;6275067;28;20123;-76
2021/01/27 08:32:28;;;;;;;5.40;3.30;;;0.80;99.90;;;;;;6291873;28;20039;-79
2021/01/27 08:35:37;;;;;;;4.82;3.67;;;0.50;99.90;;;;;;6293496;28;20025;-78
2021/01/27 08:38:41;;;;;;;3.33;2.67;;;0.50;99.90;;;;;;6293215;28;20074;-75
2021/01/27 08:42:00;;;;;;;9.90;6.22;;;0.40;98.90;;;;;;6291445;28;20056;-76
2021/01/27 08:45:20;;;;;;;4.68;4.15;;;0.30;99.60;;;;;;6290884;28;20060;-78
2021/01/27 08:48:52;;;;;;;4.00;3.58;;;0.20;98.60;;;;;;6291180;28;20048;-75
2021/01/27 08:51:52;;;;;;;5.72;4.30;;;0.40;99.90;;;;;;6291464;28;20025;-77
2021/01/27 08:54:53;;;;;;;5.03;4.00;;;0.20;99.90;;;;;;6274562;28;20473;-75
2021/01/27 08:58:18;;;;;;;6.65;4.40;;;0.20;98.80;;;;;;6291802;28;20028;-75
2021/01/27 09:01:22;;;;;;;3.75;2.65;;;0.30;98.60;;;;;;6290451;28;20036;-76
2021/01/27 09:04:36;;;;;;;3.30;2.92;;;0.50;99.90;;;;;;6288654;28;20048;-75
2021/01/27 09:07:48;;;;;;;2.85;2.30;;;0.10;99.90;;;;;;6291683;28;20025;-77
2021/01/27 09:10:57;;;;;;;3.75;2.65;;;0.10;93.80;;;;;;6291321;28;20474;-77
2021/01/27 09:18:18;;;;;;;3.60;2.70;;;0.10;99.90;;;;;;6277970;28;20113;-78
2021/01/27 09:21:31;;;;;;;6.20;2.88;;;0.30;99.60;;;;;;6290060;28;20028;-78
2021/01/27 09:24:37;;;;;;;5.47;2.78;;;0.40;99.90;;;;;;6258546;28;20037;-76
2021/01/27 09:27:38;;;;;;;8.02;3.42;;;;;;;;;;6289894;28;20039;-76
2021/01/27 09:30:39;;;;;;;8.43;7.55;;;0.30;98.80;;;;;;6295391;28;20074;-77
2021/01/27 09:33:40;;;;;;;5.28;3.20;;;0.90;95.30;;;;;;6279558;28;20024;-80
2021/01/27 09:36:40;;;;;;;3.80;2.80;;;0.30;94.80;;;;;;6262944;28;20454;-80
2021/01/27 09:39:47;;;;;;;6.10;4.50;;;2.20;95.30;;;;;;6295565;28;20038;-79
2021/01/27 09:42:47;;;;;;;4.10;3.42;;;0.60;99.90;;;;;;6279397;28;20047;-77
2021/01/27 09:45:50;;;;;;;3.00;2.70;;;0.80;99.90;;;;;;6295365;28;20028;-77
2021/01/27 09:48:52;;;;;;;4.07;2.97;;;0.40;99.00;;;;;;6295588;28;20090;-77
2021/01/27 09:51:56;;;;;;;22.95;14.77;;;0.40;99.90;;;;;;6278590;28;20027;-76
2021/01/27 09:55:22;;;;;;;3.80;3.00;;;0.60;99.90;;;;;;6295119;28;20035;-76
2021/01/27 09:58:23;;;;;;;2.95;2.28;;;0.60;99.90;;;;;;6278537;28;20071;-76
2021/01/27 10:01:28;;;;;;;14.30;9.30;;;0.70;99.90;;;;;;6261536;28;20401;-75
2021/01/27 10:04:30;;;;;;;5.70;3.80;;;0.80;92.70;;;;;;6294840;28;20135;-76
2021/01/27 10:07:34;;;;;;;5.78;4.53;;;1.20;95.00;;;;;;6295177;28;20032;-75
2021/01/27 10:10:34;;;;;;;8.00;5.32;;;1.70;94.20;;;;;;6294426;28;20039;-75
2021/01/27 10:13:36;;;;;;;6.20;3.85;;;1.40;94.00;;;;;;6296402;28;20402;-76
2021/01/27 10:16:52;;;;;;;8.07;5.72;;;1.40;94.30;;;;;;6277976;28;20024;-76
2021/01/27 10:20:20;;;;;;;4.10;3.03;;;1.40;94.80;;;;;;6296020;28;20085;-77
2021/01/27 10:23:41;;;;;;;5.82;3.88;;;2.40;94.50;;;;;;6294234;28;20461;-74
2021/01/27 10:26:41;;;;;;;7.63;4.85;;;1.00;99.90;;;;;;6295238;28;20081;-77
2021/01/27 10:29:42;;;;;;;14.25;11.05;;;0.90;99.00;;;;;;6295844;28;20032;-76
2021/01/27 10:32:44;;;;;;;8.68;6.18;;;1.60;93.80;;;;;;6277756;28;20378;-78
2021/01/27 10:35:44;;;;;;;6.35;5.47;;;2.70;93.40;;;;;;6294483;28;20028;-76
2021/01/27 10:38:45;;;;;;;2.90;2.20;;;2.60;93.00;;;;;;6294042;28;20478;-75
2021/01/27 10:42:09;;;;;;;3.10;2.50;;;1.60;91.30;;;;;;6293907;28;20110;-76
2021/01/27 10:45:22;;;;;;;8.65;7.93;;;1.90;92.20;;;;;;6292507;28;20143;-74
2021/01/27 10:48:28;;;;;;;7.57;4.63;;;1.70;91.70;;;;;;6295544;28;20044;-76
2021/01/27 10:51:29;;;;;;;3.17;2.70;;;2.20;91.70;;;;;;6294949;28;20173;-77
2021/01/27 10:54:29;;;;;;;6.70;6.10;;;1.90;91.20;;;;;;6293961;28;20029;-78
2021/01/27 10:57:30;;;;;;;6.15;4.00;;;2.40;90.10;;;;;;6293772;28;20481;-79
2021/01/27 11:00:31;;;;;;;3.55;2.28;;;2.20;90.30;;;;;;6294534;28;20095;-77
2021/01/27 11:03:32;;;;;;;6.07;4.47;;;2.00;81.90;;;;;;6295147;28;20040;-78
2021/01/27 11:06:32;;;;;;;3.17;2.70;;;2.00;84.20;;;;;;6295672;28;20028;-78
2021/01/27 11:09:33;;;;;;;2.60;2.17;;;2.20;83.80;;;;;;6276923;28;20021;-80
2021/01/27 11:12:33;;;;;;;3.85;2.58;;;2.90;84.50;;;;;;6276923;28;20357;-76
2021/01/27 11:15:34;;;;;;;4.38;3.40;;;2.60;83.20;;;;;;6296041;28;20052;-77
2021/01/27 11:18:35;;;;;;;3.10;2.80;;;2.60;83.80;;;;;;6293350;28;20064;-77
2021/01/27 11:21:39;;;;;;;2.33;2.00;;;2.30;81.70;;;;;;6294278;28;20043;-78
2021/01/27 11:24:41;;;;;;;2.92;2.20;;;2.20;95.50;;;;;;6293484;28;20058;-77
2021/01/27 11:27:41;;;;;;;2.53;1.93;;;2.20;85.20;;;;;;6289606;28;20857;-77
2021/01/27 11:30:42;;;;;;;1.60;1.50;;;2.40;88.20;;;;;;6275630;28;20421;-77
2021/01/27 11:33:44;;;;;;;2.10;1.80;;;2.70;89.50;;;;;;6275052;28;20474;-76
2021/01/27 11:36:45;;;;;;;2.92;1.70;;;2.50;90.30;;;;;;6294158;28;20056;-77
2021/01/27 11:39:45;;;;;;;1.90;1.70;;;2.50;90.90;;;;;;6291829;28;20043;-77
2021/01/27 11:42:46;;;;;;;2.60;2.40;;;3.20;91.30;;;;;;6291446;28;20079;-76
2021/01/27 11:45:47;;;;;;;7.13;3.58;;;2.20;99.90;;;;;;6275167;28;20029;-77
2021/01/27 11:48:47;;;;;;;4.25;3.33;;;2.50;96.30;;;;;;6291743;28;20512;-78
2021/01/27 11:51:48;;;;;;;4.10;3.70;;;2.50;94.50;;;;;;6292101;28;20025;-78
2021/01/27 11:54:50;;;;;;;4.93;2.80;;;2.90;93.00;;;;;;6292915;28;20028;-76
2021/01/27 11:57:51;;;;;;;2.65;2.45;;;2.60;92.40;;;;;;6292775;28;20016;-80
2021/01/27 12:00:52;;;;;;;4.07;2.80;;;3.10;92.20;;;;;;6293157;28;20040;-77
2021/01/27 12:03:52;;;;;;;9.07;5.78;;;2.20;92.10;;;;;;6274800;28;20072;-78
2021/01/27 12:06:55;;;;;;;4.72;3.33;;;2.60;92.30;;;;;;6272192;28;20458;-76
2021/01/27 12:09:56;;;;;;;4.82;4.03;;;2.80;92.70;;;;;;6293273;28;20024;-79
2021/01/27 12:12:57;;;;;;;5.53;4.30;;;1.70;92.60;;;;;;6291649;28;20036;-78
2021/01/27 12:15:57;;;;;;;5.90;5.30;;;2.60;93.30;;;;;;6290370;28;20032;-77
2021/01/27 12:18:58;;;;;;;4.18;3.35;;;2.80;93.50;;;;;;6290158;28;20025;-76
2021/01/27 12:21:59;;;;;;;5.68;2.90;;;2.40;96.90;;;;;;6291561;28;20416;-77
2021/01/27 12:24:59;;;;;;;4.95;4.20;;;2.80;93.80;;;;;;6273871;28;20020;-76
2021/01/27 12:28:00;;;;;;;3.53;2.70;;;2.00;93.30;;;;;;6291150;28;20344;-80
2021/01/27 12:31:00;;;;;;;3.53;2.67;;;3.40;94.00;;;;;;6258783;28;20025;-78
2021/01/27 12:34:01;;;;;;;3.88;3.17;;;3.20;94.10;;;;;;6288626;28;20521;-80
2021/01/27 12:37:02;;;;;;;7.53;5.82;;;1.80;93.90;;;;;;6291148;28;20021;-79
2021/01/27 12:40:05;;;;;;;8.43;7.63;;;1.90;94.40;;;;;;6273875;28;20433;-78
2021/01/27 12:43:05;;;;;;;10.27;9.38;;;1.90;94.20;;;;;;6274276;28;20063;-78
2021/01/27 12:46:06;;;;;;;5.65;5.15;;;3.00;94.70;;;;;;6292069;28;20024;-77
2021/01/27 12:49:07;;;;;;;2.90;2.70;;;2.50;94.60;;;;;;6291743;28;20040;-77
2021/01/27 12:52:07;;;;;;;3.47;2.70;;;2.70;94.40;;;;;;6292079;28;20123;-77
2021/01/27 12:55:11;;;;;;;6.60;4.13;;;2.90;94.60;;;;;;6275061;28;20101;-77
2021/01/27 12:58:11;;;;;;;2.60;2.40;;;2.00;94.40;;;;;;6275827;28;20020;-76
2021/01/27 13:01:13;;;;;;;3.00;2.20;;;2.80;94.70;;;;;;6292256;28;20056;-75
2021/01/27 13:04:14;;;;;;;3.93;2.70;;;3.10;94.60;;;;;;6292967;28;20032;-76
2021/01/27 13:07:15;;;;;;;4.38;3.90;;;2.00;99.90;;;;;;6275433;28;20019;-76
2021/01/27 13:10:16;;;;;;;4.40;4.00;;;2.10;99.90;;;;;;6291533;28;20634;-77
2021/01/27 13:13:17;;;;;;;5.25;3.83;;;2.50;99.90;;;;;;6292861;28;20397;-76
2021/01/27 13:16:17;;;;;;;4.28;3.70;;;2.20;99.90;;;;;;6292665;28;20032;-76
2021/01/27 13:19:18;;;;;;;8.25;5.05;;;2.20;99.90;;;;;;6291255;28;20013;-76
2021/01/27 13:22:18;;;;;;;5.05;3.95;;;2.40;99.90;;;;;;6274522;28;20094;-76
2021/01/27 13:25:21;;;;;;;4.90;3.63;;;2.40;93.90;;;;;;6292872;28;20028;-76
2021/01/27 13:28:22;;;;;;;5.20;3.15;;;;;;;;;;6291441;28;20041;-75
2021/01/27 13:31:23;;;;;;;6.40;3.92;;;;;;;;;;6292522;28;20032;-76
2021/01/27 13:34:24;;;;;;;5.88;4.57;;;2.20;99.90;;;;;;6292359;28;20488;-75
2021/01/27 13:37:25;;;;;;;7.45;4.97;;;;;;;;;;6292718;28;20025;-76
2021/01/27 13:40:26;;;;;;;5.20;4.32;;;2.40;97.50;;;;;;6292386;28;20033;-76
2021/01/27 13:43:27;;;;;;;7.38;6.68;;;3.00;93.80;;;;;;6292565;28;20080;-75
2021/01/27 13:46:27;;;;;;;2.28;1.98;;;3.60;93.40;;;;;;6292296;28;20043;-76
2021/01/27 13:49:28;;;;;;;2.50;2.15;;;2.90;92.90;;;;;;6290872;28;20145;-78
2021/01/27 13:52:28;;;;;;;2.50;2.22;;;2.70;92.30;;;;;;6292302;28;20025;-75
2021/01/27 13:55:29;;;;;;;2.15;1.90;;;3.40;92.50;;;;;;6290777;28;20513;-78
2021/01/27 13:58:29;;;;;;;5.35;4.07;;;4.50;92.80;;;;;;6292524;28;20031;-76
2021/01/27 14:01:30;;;;;;;3.38;2.80;;;3.80;92.70;;;;;;6292415;28;20371;-75
2021/01/27 14:04:31;;;;;;;5.03;2.10;;;2.60;92.20;;;;;;6292034;28;20040;-77
2021/01/27 14:07:32;;;;;;;3.88;3.33;;;4.00;92.40;;;;;;6291676;28;20025;-75
2021/01/27 14:10:32;;;;;;;9.20;5.28;;;3.10;92.40;;;;;;6292251;28;20032;-75
2021/01/27 14:13:33;;;;;;;3.42;2.65;;;2.80;92.40;;;;;;6293428;28;20413;-76
2021/01/27 14:16:34;;;;;;;2.70;2.50;;;3.00;92.40;;;;;;6296832;28;20034;-76
2021/01/27 14:19:38;;;;;;;4.15;2.90;;;2.70;92.30;;;;;;6295213;28;20391;-76
2021/01/27 14:22:38;;;;;;;4.10;2.60;;;2.80;92.30;;;;;;6294847;28;20032;-75
2021/01/27 14:25:39;;;;;;;4.13;3.25;;;3.40;92.50;;;;;;6296458;28;20075;-75
2021/01/27 14:28:40;;;;;;;2.92;2.60;;;3.30;92.40;;;;;;6295093;28;20683;-77
2021/01/27 14:31:40;;;;;;;3.47;3.00;;;3.20;92.40;;;;;;6296489;28;20020;-75
2021/01/27 14:34:41;;;;;;;5.63;3.13;;;3.20;92.10;;;;;;6294927;28;20431;-76
2021/01/27 14:37:41;;;;;;;5.00;2.25;;;4.40;92.40;;;;;;6278531;28;20024;-75
2021/01/27 14:40:42;;;;;;;13.45;7.47;;;4.60;92.50;;;;;;6295720;28;20094;-75
2021/01/27 14:43:44;;;;;;;7.68;5.07;;;3.20;92.10;;;;;;6294636;28;20041;-75
2021/01/27 14:46:46;;;;;;;3.35;2.35;;;3.40;92.20;;;;;;6295961;28;20025;-75
2021/01/27 14:49:46;;;;;;;3.47;2.42;;;3.10;92.20;;;;;;6294002;28;20013;-75
2021/01/27 14:52:47;;;;;;;3.88;2.80;;;3.10;92.10;;;;;;6295878;28;20432;-76
2021/01/27 14:55:48;;;;;;;3.55;2.67;;;3.30;92.40;;;;;;6295657;28;20798;-75
2021/01/27 14:58:48;;;;;;;3.90;2.72;;;4.10;92.50;;;;;;6295605;28;20040;-76
2021/01/27 15:01:49;;;;;;;3.83;3.40;;;3.50;92.50;;;;;;6294210;28;20025;-75
2021/01/27 15:04:50;;;;;;;5.03;3.30;;;3.30;92.70;;;;;;6295386;28;20044;-75
2021/01/27 15:07:50;;;;;;;4.00;2.90;;;3.60;92.60;;;;;;6295165;28;20033;-75
2021/01/27 15:10:51;;;;;;;3.15;2.85;;;2.60;92.40;;;;;;6293941;28;20056;-75
2021/01/27 15:13:52;;;;;;;6.15;3.88;;;;;;;;;;6294981;28;20368;-75
2021/01/27 15:16:53;;;;;;;3.30;2.47;;;2.70;90.90;;;;;;6294835;28;20025;-75
2021/01/27 15:19:53;;;;;;;3.00;2.70;;;2.70;92.00;;;;;;6277338;28;20071;-75
2021/01/27 15:22:54;;;;;;;3.47;2.78;;;3.00;92.40;;;;;;6295029;28;20451;-76
2021/01/27 15:25:54;;;;;;;3.22;2.80;;;3.10;92.20;;;;;;6294128;28;20032;-75
2021/01/27 15:28:55;;;;;;;5.43;2.78;;;2.70;92.30;;;;;;6295019;28;20100;-75
2021/01/27 15:31:56;;;;;;;2.95;2.50;;;3.20;92.40;;;;;;6294514;28;20036;-75
2021/01/27 15:34:57;;;;;;;3.83;3.17;;;2.70;92.20;;;;;;6293372;28;20039;-75
2021/01/27 15:38:01;;;;;;;3.83;3.03;;;2.80;92.30;;;;;;6292406;28;20347;-75
2021/01/27 15:41:01;;;;;;;7.72;3.85;;;2.80;91.30;;;;;;6276811;28;20045;-75
2021/01/27 15:44:02;;;;;;;4.78;3.10;;;3.00;92.40;;;;;;6293790;28;20090;-75
2021/01/27 15:47:03;;;;;;;2.95;2.65;;;2.50;92.60;;;;;;6294148;28;20027;-75
2021/01/27 15:50:04;;;;;;;4.90;3.40;;;2.50;92.80;;;;;;6293014;28;20016;-75
2021/01/27 15:53:05;;;;;;;9.48;5.75;;;2.50;92.90;;;;;;6293706;28;20371;-75
2021/01/27 15:56:06;;;;;;;6.00;3.00;;;2.50;93.30;;;;;;6292791;28;20028;-76
2021/01/27 15:59:07;;;;;;;6.97;4.60;;;2.50;99.90;;;;;;6294115;28;20425;-75
2021/01/27 16:02:07;;;;;;;9.68;5.35;;;2.20;99.90;;;;;;6276029;28;20041;-75
2021/01/27 16:05:09;;;;;;;9.57;5.50;;;2.30;99.90;;;;;;6293130;28;20106;-76
2021/01/27 16:08:10;;;;;;;6.45;4.72;;;2.30;99.90;;;;;;6292811;28;20032;-76
2021/01/27 16:11:11;;;;;;;6.63;4.45;;;;;;;;;;6292710;28;20035;-79
2021/01/27 16:14:12;;;;;;;8.00;5.43;;;2.40;99.90;;;;;;6293369;28;20461;-75
2021/01/27 16:17:13;;;;;;;5.57;4.32;;;;;;;;;;6275404;28;20074;-77
2021/01/27 16:20:17;;;;;;;18.30;11.65;;;2.50;99.90;;;;;;6292619;28;20070;-75
2021/01/27 16:23:18;;;;;;;39.35;25.30;;;;;;;;;;6291827;28;20493;-77